Latest Coastal Weather Observations for Ulladulla

IDN60701

Issued at 10:11 pm EST Monday 22 April 2019 (issued every 10 minutes, with the page automatically refreshed every 10 minutes)

About coastal observations | Map of coastal stations | Coastal observations for NSW | Marine services | Other Formats
Station Details ID: 069138 Name: ULLADULLA AWS Lat: -35.36 Lon: 150.48 Height: 35.7 m
Data from the previous 72 hours. | See also: Recent months at Ulladulla
Date/Time
EST
Wind Sea
Height
m
Swell Vis
km
Cloud Weather Temp
°C
Press
hPa
Rain since
9am
mm
Dir  Spd
kts
Gust
kts
Height
m
Period
s
Dir
22/10:00pm SSE 13 19 - - - - - - - 20.3 1026.6 0.0
22/09:30pm SSE 13 18 - - - - - - - 20.3 1026.5 0.0
22/09:00pm SSE 13 17 - - - - - - - 20.2 1026.1 0.0
22/08:30pm SSE 13 19 - - - - - - - 20.3 1025.9 0.0
22/08:00pm SSE 15 21 - - - - - - - 20.2 1025.6 0.0
22/07:30pm SSE 12 16 - - - - - - - 20.6 1025.4 0.0
22/07:00pm SSW 8 15 - - - - - - - 20.7 1025.1 0.0
22/06:30pm SSW 8 12 - - - - - - - 20.3 1024.7 0.0
22/06:00pm SSW 9 14 - - - - - - - 20.2 1024.4 0.0
22/05:30pm SW 11 18 - - - - - - - 20.1 1023.9 0.0
22/05:00pm SSW 11 16 - - - - - - - 20.1 1023.5 0.0
22/04:30pm SSW 12 18 - - - - - - - 20.2 1023.1 0.0
22/04:00pm SSW 11 17 - - - - - - - 20.3 1022.8 0.0
22/03:30pm SSW 11 18 - - - - - - - 20.6 1022.6 0.0
22/03:00pm SSW 11 17 - - - - - - - 21.1 1022.4 0.0
22/02:30pm S 10 15 - - - - - - - 21.4 1022.4 0.0
22/02:00pm NNE 11 15 - - - - - - - 21.9 1022.4 0.0
22/01:30pm E 12 15 - - - - - - - 21.5 1022.2 0.0
22/01:00pm NE 14 16 - - - - - - - 21.4 1022.0 0.0
22/12:30pm E 12 15 - - - - - - - 21.8 1022.1 0.0
22/12:00pm ESE 9 12 - - - - - - - 22.2 1022.2 0.0
22/11:30am ESE 2 4 - - - - - - - 23.1 1022.3 0.0
22/11:00am NE 5 9 - - - - - - - 22.6 1022.2 0.0
22/10:30am NE 4 7 - - - - - - - 22.3 1022.3 0.0
22/10:00am NNE 4 7 - - - - - - - 22.2 1022.2 0.0
22/09:30am N 5 7 - - - - - - - 21.1 1022.2 0.0
22/09:00am N 6 8 - - - - - - - 20.9 1022.3 0.0
22/08:30am N 5 7 - - - - - - - 20.2 1022.2 0.0
22/08:00am N 3 5 - - - - - - - 19.4 1022.2 0.0
22/07:30am N 1 2 - - - - - - - 19.2 1022.0 0.0
22/07:00am CALM 0 2 - - - - - - - 18.7 1021.5 0.0
22/06:30am N 3 4 - - - - - - - 18.7 1021.2 0.0
22/06:00am N 4 6 - - - - - - - 19.0 1020.9 0.0
22/05:30am NNW 5 8 - - - - - - - 19.2 1020.5 0.0
22/05:00am N 7 10 - - - - - - - 19.2 1020.4 0.0
22/04:30am N 7 11 - - - - - - - 19.2 1020.1 0.0
22/04:00am NNW 4 7 - - - - - - - 19.4 1020.2 0.0
22/03:30am N 4 7 - - - - - - - 19.1 1020.2 0.0
22/03:00am N 3 5 - - - - - - - 18.4 1020.3 0.0
22/02:30am N 2 4 - - - - - - - 18.2 1020.4 0.0
22/02:00am N 4 6 - - - - - - - 18.7 1020.5 0.0
22/01:30am N 6 9 - - - - - - - 19.5 1020.7 0.0
22/01:00am NNW 6 10 - - - - - - - 19.7 1020.8 0.0
22/12:30am N 7 10 - - - - - - - 19.7 1020.8 0.0
22/12:00am NNW 6 10 - - - - - - - 19.9 1020.7 0.0
 
Date/Time
EST
Wind Sea
Height
m
Swell Vis
km
Cloud Weather Temp
°C
Press
hPa
Rain since
9am
mm
Dir  Spd
kts
Gust
kts
Height
m
Period
s
Dir
21/11:30pm NNW 5 7 - - - - - - - 20.0 1020.8 0.0
21/11:00pm N 7 10 - - - - - - - 20.1 1020.8 0.0
21/10:30pm N 9 12 - - - - - - - 20.3 1021.0 0.0
21/10:00pm N 8 12 - - - - - - - 20.3 1021.1 0.0
21/09:30pm N 8 12 - - - - - - - 20.2 1021.2 0.0
21/09:00pm N 8 11 - - - - - - - 20.4 1021.3 0.0
21/08:30pm N 8 13 - - - - - - - 20.4 1021.0 0.0
21/08:00pm N 9 13 - - - - - - - 20.5 1021.0 0.0
21/07:30pm N 9 13 - - - - - - - 20.6 1020.9 0.0
21/07:00pm N 8 12 - - - - - - - 20.8 1020.9 0.0
21/06:30pm N 8 11 - - - - - - - 21.1 1021.0 0.0
21/06:00pm N 5 10 - - - - - - - 21.2 1020.9 0.0
21/05:30pm NNW 7 10 - - - - - - - 21.4 1020.8 0.0
21/05:00pm NNW 5 9 - - - - - - - 21.5 1020.8 0.0
21/04:30pm NNW 4 7 - - - - - - - 21.7 1020.9 0.0
21/04:00pm NNE 5 12 - - - - - - - 22.2 1020.8 0.0
21/03:30pm NE 12 17 - - - - - - - 22.3 1020.8 0.0
21/03:00pm NNE 10 14 - - - - - - - 22.2 1020.9 0.0
21/02:30pm NE 12 17 - - - - - - - 22.5 1021.0 0.0
21/02:00pm NNE 10 14 - - - - - - - 22.3 1021.1 0.0
21/01:30pm NNE 9 12 - - - - - - - 22.9 1021.1 0.0
21/01:00pm NNE 11 15 - - - - - - - 22.8 1021.3 0.0
21/12:30pm NNE 11 15 - - - - - - - 22.6 1021.8 0.0
21/12:00pm NNE 12 16 - - - - - - - 22.2 1022.4 0.0
21/11:30am NNE 11 15 - - - - - - - 22.3 1023.1 0.0
21/11:00am NNE 7 9 - - - - - - - 22.0 1023.7 0.0
21/10:30am NNE 4 8 - - - - - - - 22.1 1024.0 0.0
21/10:00am NE 5 8 - - - - - - - 21.4 1024.0 0.0
21/09:30am NNE 3 5 - - - - - - - 20.8 1024.2 0.0
21/09:00am N 3 4 - - - - - - - 20.0 1024.1 0.0
21/08:30am NNE 3 4 - - - - - - - 19.3 1024.3 0.0
21/08:00am N 2 3 - - - - - - - 19.3 1024.5 0.0
21/07:30am N 1 1 - - - - - - - 18.6 1024.0 0.0
21/07:00am CALM 0 0 - - - - - - - 17.6 1023.9 0.0
21/06:30am CALM 0 0 - - - - - - - 17.2 1023.6 0.0
21/06:00am CALM 0 0 - - - - - - - 16.9 1023.3 0.0
21/05:30am CALM 0 0 - - - - - - - 17.6 1023.1 0.0
21/05:00am CALM 0 0 - - - - - - - 16.7 1023.0 0.0
21/04:30am CALM 0 0 - - - - - - - 16.8 1023.1 0.0
21/04:00am CALM 0 0 - - - - - - - 16.7 1022.8 0.0
21/03:30am CALM 0 0 - - - - - - - 16.9 1022.8 0.0
21/03:00am CALM 0 1 - - - - - - - 17.0 1022.9 0.0
21/02:30am N 1 1 - - - - - - - 17.6 1022.8 0.0
21/02:00am N 1 2 - - - - - - - 17.8 1023.0 0.0
21/01:30am N 2 2 - - - - - - - 17.6 1023.2 0.0
21/01:00am N 1 1 - - - - - - - 18.1 1023.6 0.0
21/12:30am N 2 3 - - - - - - - 18.5 1023.8 0.0
21/12:00am N 2 3 - - - - - - - 18.7 1023.8 0.0
 
Date/Time
EST
Wind Sea
Height
m
Swell Vis
km
Cloud Weather Temp
°C
Press
hPa
Rain since
9am
mm
Dir  Spd
kts
Gust
kts
Height
m
Period
s
Dir
20/11:30pm N 2 3 - - - - - - - 19.0 1024.0 0.0
20/11:00pm N 6 8 - - - - - - - 19.6 1024.4 0.0
20/10:30pm N 6 9 - - - - - - - 19.8 1024.4 0.0
20/10:00pm N 7 10 - - - - - - - 20.0 1024.5 0.0
20/09:30pm N 6 9 - - - - - - - 20.0 1024.3 0.0
20/09:00pm N 7 10 - - - - - - - 20.1 1024.2 0.0
20/08:30pm N 7 11 - - - - - - - 20.3 1024.0 0.0
20/08:00pm N 7 10 - - - - - - - 20.4 1023.9 0.0
20/07:30pm NNW 6 10 - - - - - - - 20.9 1023.8 0.0
20/07:00pm N 3 5 - - - - - - - 21.1 1023.8 0.0
20/06:30pm N 4 7 - - - - - - - 21.2 1023.7 0.0
20/06:00pm NNW 6 9 - - - - - - - 21.2 1023.4 0.0
20/05:30pm N 4 7 - - - - - - - 21.1 1023.1 0.0
20/05:00pm NE 4 8 - - - - - - - 21.2 1023.1 0.0
20/04:30pm NE 12 15 - - - - - - - 21.3 1023.0 0.0
20/04:00pm NNE 13 16 - - - - - - - 21.4 1023.0 0.0
20/03:30pm NNE 10 13 - - - - - - - 21.6 1023.1 0.0
20/03:00pm NNE 9 14 - - - - - - - 21.8 1023.3 0.0
20/02:30pm NNE 8 15 - - - - - - - 22.1 1023.5 0.0
20/02:00pm NE 8 13 - - - - - - - 22.1 1023.6 0.0
20/01:30pm NE 8 13 - - - - - - - 22.1 1023.9 0.0
20/01:00pm NE 7 13 - - - - - - - 22.5 1024.3 0.0
20/12:30pm ENE 7 11 - - - - - - - 21.9 1024.7 0.0
20/12:00pm NE 8 11 - - - - - - - 21.8 1025.1 0.0
20/11:30am NE 6 9 - - - - - - - 21.6 1025.6 0.0
20/11:00am NE 5 7 - - - - - - - 21.3 1026.0 0.0
20/10:30am NNE 5 7 - - - - - - - 20.8 1026.2 0.0
20/10:00am NNE 4 5 - - - - - - - 20.6 1026.3 0.0
20/09:30am NNE 4 5 - - - - - - - 20.1 1026.5 0.0
20/09:00am NNE 3 4 - - - - - - - 20.0 1026.7 0.0
20/08:30am CALM 0 0 - - - - - - - 19.8 1026.7 0.0
20/08:00am NW 1 1 - - - - - - - 19.4 1026.6 0.0
20/07:30am CALM 0 0 - - - - - - - 18.6 1026.3 0.0
20/07:00am CALM 0 0 - - - - - - - 16.9 1026.1 0.0
20/06:30am CALM 0 1 - - - - - - - 16.6 1026.0 0.0
20/06:00am CALM 0 0 - - - - - - - 16.4 1026.0 0.0
20/05:30am CALM 0 0 - - - - - - - 16.7 1025.9 0.0
20/05:00am NW 2 3 - - - - - - - 16.4 1025.7 0.0
20/04:30am WNW 1 2 - - - - - - - 16.8 1025.7 0.0
20/04:00am W 2 3 - - - - - - - 17.1 1025.9 0.0
20/03:30am W 3 4 - - - - - - - 17.2 1025.9 0.0
20/03:00am W 4 5 - - - - - - - 17.4 1025.8 0.0
20/02:30am W 2 3 - - - - - - - 17.5 1025.9 0.0
20/02:00am W 3 4 - - - - - - - 17.8 1026.0 0.0
20/01:30am W 3 4 - - - - - - - 18.1 1026.2 0.0
20/01:00am WSW 3 4 - - - - - - - 17.9 1026.3 0.0
20/12:30am W 3 4 - - - - - - - 18.1 1026.4 0.0
20/12:00am W 3 4 - - - - - - - 18.2 1026.7 0.0
 
Date/Time
EST
Wind Sea
Height
m
Swell Vis
km
Cloud Weather Temp
°C
Press
hPa
Rain since
9am
mm
Dir  Spd
kts
Gust
kts
Height
m
Period
s
Dir
19/11:30pm W 2 3 - - - - - - - 18.3 1026.8 0.0
19/11:00pm WSW 2 3 - - - - - - - 18.8 1027.0 0.0
19/10:30pm WSW 2 3 - - - - - - - 19.2 1027.2 0.0

Other formats

Comma delimited format used in spreadsheet applications
http://www.bom.gov.au/fwo/IDN60701/IDN60701.94938.axf

JavaScript Object Notation format (JSON) in row-major order
http://www.bom.gov.au/fwo/IDN60701/IDN60701.94938.json

Data quality

Most of these data are generated automatically and are frequently updated. Quality checks on data are not normally performed. It is possible for incorrect values to appear. Refer to information at About Latest Weather Observations and please check the disclaimer before using these data.